sensor_id;sensor_type;location;lat;lon;timestamp;temperature;humidity
52439;DHT22;73188;52.948;6.012;2024-03-06T00:08:45;14.10;99.90
52439;DHT22;73188;52.948;6.012;2024-03-06T00:19:11;14.00;99.90
52439;DHT22;73188;52.948;6.012;2024-03-06T00:29:36;13.90;99.90
52439;DHT22;73188;52.948;6.012;2024-03-06T00:40:03;13.80;99.90
52439;DHT22;73188;52.948;6.012;2024-03-06T00:50:29;13.70;99.90
52439;DHT22;73188;52.948;6.012;2024-03-06T01:00:55;13.70;99.90
52439;DHT22;73188;52.948;6.012;2024-03-06T01:11:22;13.50;99.90
52439;DHT22;73188;52.948;6.012;2024-03-06T01:21:48;13.30;99.90
52439;DHT22;73188;52.948;6.012;2024-03-06T01:32:14;13.20;99.90
52439;DHT22;73188;52.948;6.012;2024-03-06T01:42:40;13.20;99.90
52439;DHT22;73188;52.948;6.012;2024-03-06T01:53:06;12.90;99.90
52439;DHT22;73188;52.948;6.012;2024-03-06T02:03:33;12.80;99.90
52439;DHT22;73188;52.948;6.012;2024-03-06T02:13:59;12.70;99.90
52439;DHT22;73188;52.948;6.012;2024-03-06T02:24:25;12.60;99.90
52439;DHT22;73188;52.948;6.012;2024-03-06T02:34:51;12.60;99.90
52439;DHT22;73188;52.948;6.012;2024-03-06T02:45:17;12.40;99.90
52439;DHT22;73188;52.948;6.012;2024-03-06T02:55:42;12.30;99.90
52439;DHT22;73188;52.948;6.012;2024-03-06T03:06:08;12.30;99.90
52439;DHT22;73188;52.948;6.012;2024-03-06T03:16:34;12.20;99.90
52439;DHT22;73188;52.948;6.012;2024-03-06T03:27:00;12.20;99.90
52439;DHT22;73188;52.948;6.012;2024-03-06T03:37:26;12.20;99.90
52439;DHT22;73188;52.948;6.012;2024-03-06T03:47:53;12.20;99.90
52439;DHT22;73188;52.948;6.012;2024-03-06T03:58:19;12.10;99.90
52439;DHT22;73188;52.948;6.012;2024-03-06T04:08:45;12.10;99.90
52439;DHT22;73188;52.948;6.012;2024-03-06T04:19:11;12.10;99.90
52439;DHT22;73188;52.948;6.012;2024-03-06T04:29:37;12.10;99.90
52439;DHT22;73188;52.948;6.012;2024-03-06T04:40:04;12.10;99.90
52439;DHT22;73188;52.948;6.012;2024-03-06T04:50:33;12.00;99.90
52439;DHT22;73188;52.948;6.012;2024-03-06T05:00:59;12.10;99.90
52439;DHT22;73188;52.948;6.012;2024-03-06T05:11:24;12.10;99.90
52439;DHT22;73188;52.948;6.012;2024-03-06T05:21:50;12.10;99.90
52439;DHT22;73188;52.948;6.012;2024-03-06T05:32:16;12.10;99.90
52439;DHT22;73188;52.948;6.012;2024-03-06T05:42:42;12.00;99.90
52439;DHT22;73188;52.948;6.012;2024-03-06T05:53:08;12.10;99.90
52439;DHT22;73188;52.948;6.012;2024-03-06T06:03:34;12.00;99.90
52439;DHT22;73188;52.948;6.012;2024-03-06T06:14:00;12.00;99.90
52439;DHT22;73188;52.948;6.012;2024-03-06T06:24:26;12.00;99.90
52439;DHT22;73188;52.948;6.012;2024-03-06T06:34:51;12.00;99.90
52439;DHT22;73188;52.948;6.012;2024-03-06T06:45:18;12.00;99.90
52439;DHT22;73188;52.948;6.012;2024-03-06T06:55:44;12.10;99.90
52439;DHT22;73188;52.948;6.012;2024-03-06T07:06:10;12.10;99.90
52439;DHT22;73188;52.948;6.012;2024-03-06T07:16:44;12.10;99.90
52439;DHT22;73188;52.948;6.012;2024-03-06T07:27:10;12.10;99.90
52439;DHT22;73188;52.948;6.012;2024-03-06T07:37:37;12.20;99.90
52439;DHT22;73188;52.948;6.012;2024-03-06T07:48:03;12.30;99.90
52439;DHT22;73188;52.948;6.012;2024-03-06T07:58:29;12.40;99.90
52439;DHT22;73188;52.948;6.012;2024-03-06T08:08:55;12.50;99.90
52439;DHT22;73188;52.948;6.012;2024-03-06T08:19:20;12.50;99.90
52439;DHT22;73188;52.948;6.012;2024-03-06T08:29:46;12.50;99.90
52439;DHT22;73188;52.948;6.012;2024-03-06T08:40:14;12.70;99.90
52439;DHT22;73188;52.948;6.012;2024-03-06T08:50:46;12.60;99.90
52439;DHT22;73188;52.948;6.012;2024-03-06T09:01:12;12.70;99.90
52439;DHT22;73188;52.948;6.012;2024-03-06T09:11:38;12.80;99.90
52439;DHT22;73188;52.948;6.012;2024-03-06T09:22:04;12.70;99.90
52439;DHT22;73188;52.948;6.012;2024-03-06T09:32:30;12.70;99.90
52439;DHT22;73188;52.948;6.012;2024-03-06T09:42:56;12.80;99.90
52439;DHT22;73188;52.948;6.012;2024-03-06T09:53:22;12.90;99.90
52439;DHT22;73188;52.948;6.012;2024-03-06T10:03:49;13.00;99.90
52439;DHT22;73188;52.948;6.012;2024-03-06T10:14:16;13.10;99.90
52439;DHT22;73188;52.948;6.012;2024-03-06T10:24:41;13.40;99.90
52439;DHT22;73188;52.948;6.012;2024-03-06T10:35:07;13.50;99.90
52439;DHT22;73188;52.948;6.012;2024-03-06T10:45:48;13.50;99.90
52439;DHT22;73188;52.948;6.012;2024-03-06T10:56:16;13.50;99.90
52439;DHT22;73188;52.948;6.012;2024-03-06T11:06:43;13.80;99.90
52439;DHT22;73188;52.948;6.012;2024-03-06T11:17:09;13.90;99.90
52439;DHT22;73188;52.948;6.012;2024-03-06T11:28:07;14.30;99.90
52439;DHT22;73188;52.948;6.012;2024-03-06T11:38:37;14.50;99.90
52439;DHT22;73188;52.948;6.012;2024-03-06T11:49:03;14.60;99.90
52439;DHT22;73188;52.948;6.012;2024-03-06T11:59:33;14.50;99.90
52439;DHT22;73188;52.948;6.012;2024-03-06T12:09:59;14.60;99.90
52439;DHT22;73188;52.948;6.012;2024-03-06T12:20:25;14.60;99.90
52439;DHT22;73188;52.948;6.012;2024-03-06T12:30:52;15.20;99.90
52439;DHT22;73188;52.948;6.012;2024-03-06T12:41:17;15.50;99.90
52439;DHT22;73188;52.948;6.012;2024-03-06T12:51:44;15.80;99.90
52439;DHT22;73188;52.948;6.012;2024-03-06T13:02:09;16.20;99.90
52439;DHT22;73188;52.948;6.012;2024-03-06T13:12:38;17.00;99.90
52439;DHT22;73188;52.948;6.012;2024-03-06T13:23:04;19.00;99.90
52439;DHT22;73188;52.948;6.012;2024-03-06T13:33:31;20.10;99.90
52439;DHT22;73188;52.948;6.012;2024-03-06T13:43:57;20.70;99.90
52439;DHT22;73188;52.948;6.012;2024-03-06T13:54:22;20.90;99.90
52439;DHT22;73188;52.948;6.012;2024-03-06T14:04:48;21.30;99.90
52439;DHT22;73188;52.948;6.012;2024-03-06T14:15:14;20.80;99.90
52439;DHT22;73188;52.948;6.012;2024-03-06T14:25:41;21.50;99.90
52439;DHT22;73188;52.948;6.012;2024-03-06T14:36:07;20.50;99.90
52439;DHT22;73188;52.948;6.012;2024-03-06T14:46:33;20.10;99.90
52439;DHT22;73188;52.948;6.012;2024-03-06T14:56:59;18.10;99.90
52439;DHT22;73188;52.948;6.012;2024-03-06T15:07:25;17.50;99.90
52439;DHT22;73188;52.948;6.012;2024-03-06T15:17:51;17.30;99.90
52439;DHT22;73188;52.948;6.012;2024-03-06T15:28:16;17.00;99.90
52439;DHT22;73188;52.948;6.012;2024-03-06T15:38:43;16.70;99.90
52439;DHT22;73188;52.948;6.012;2024-03-06T15:49:20;16.50;99.90
52439;DHT22;73188;52.948;6.012;2024-03-06T15:59:47;16.30;99.90
52439;DHT22;73188;52.948;6.012;2024-03-06T16:10:12;16.00;99.90
52439;DHT22;73188;52.948;6.012;2024-03-06T16:20:38;16.00;99.90
52439;DHT22;73188;52.948;6.012;2024-03-06T16:31:04;15.80;99.90
52439;DHT22;73188;52.948;6.012;2024-03-06T16:41:31;15.60;99.90
52439;DHT22;73188;52.948;6.012;2024-03-06T16:51:56;15.20;99.90
52439;DHT22;73188;52.948;6.012;2024-03-06T17:02:22;14.90;99.90
52439;DHT22;73188;52.948;6.012;2024-03-06T17:12:48;14.60;99.90
52439;DHT22;73188;52.948;6.012;2024-03-06T17:23:14;14.20;99.90
52439;DHT22;73188;52.948;6.012;2024-03-06T17:33:40;13.80;99.90
52439;DHT22;73188;52.948;6.012;2024-03-06T17:44:05;13.40;99.90
52439;DHT22;73188;52.948;6.012;2024-03-06T17:54:31;13.20;99.90
52439;DHT22;73188;52.948;6.012;2024-03-06T18:04:59;12.90;99.90
52439;DHT22;73188;52.948;6.012;2024-03-06T18:15:25;12.70;99.90
52439;DHT22;73188;52.948;6.012;2024-03-06T18:25:50;12.50;99.90
52439;DHT22;73188;52.948;6.012;2024-03-06T18:36:16;12.40;99.90
52439;DHT22;73188;52.948;6.012;2024-03-06T18:46:42;12.20;99.90
52439;DHT22;73188;52.948;6.012;2024-03-06T18:57:09;12.10;99.90
52439;DHT22;73188;52.948;6.012;2024-03-06T19:07:35;11.80;99.90
52439;DHT22;73188;52.948;6.012;2024-03-06T19:18:03;11.90;99.90
52439;DHT22;73188;52.948;6.012;2024-03-06T19:28:29;12.40;99.90
52439;DHT22;73188;52.948;6.012;2024-03-06T19:38:55;12.50;99.90
52439;DHT22;73188;52.948;6.012;2024-03-06T19:49:21;12.50;99.90
52439;DHT22;73188;52.948;6.012;2024-03-06T19:59:47;12.50;99.90
52439;DHT22;73188;52.948;6.012;2024-03-06T20:10:12;12.70;99.90
52439;DHT22;73188;52.948;6.012;2024-03-06T20:20:39;12.40;99.90
52439;DHT22;73188;52.948;6.012;2024-03-06T20:31:07;12.30;99.90
52439;DHT22;73188;52.948;6.012;2024-03-06T20:41:33;12.30;99.90
52439;DHT22;73188;52.948;6.012;2024-03-06T20:51:59;12.00;99.90
52439;DHT22;73188;52.948;6.012;2024-03-06T21:02:25;11.80;99.90
52439;DHT22;73188;52.948;6.012;2024-03-06T21:12:52;11.40;99.90
52439;DHT22;73188;52.948;6.012;2024-03-06T21:23:19;11.20;99.90
52439;DHT22;73188;52.948;6.012;2024-03-06T21:33:45;11.00;99.90
52439;DHT22;73188;52.948;6.012;2024-03-06T21:44:11;10.90;99.90
52439;DHT22;73188;52.948;6.012;2024-03-06T21:54:43;10.70;99.90
52439;DHT22;73188;52.948;6.012;2024-03-06T22:05:10;10.60;99.90
52439;DHT22;73188;52.948;6.012;2024-03-06T22:15:35;10.60;99.90
52439;DHT22;73188;52.948;6.012;2024-03-06T22:26:05;10.50;99.90
52439;DHT22;73188;52.948;6.012;2024-03-06T22:36:31;10.40;99.90
52439;DHT22;73188;52.948;6.012;2024-03-06T22:46:57;10.30;99.90
52439;DHT22;73188;52.948;6.012;2024-03-06T22:57:23;10.20;99.90
52439;DHT22;73188;52.948;6.012;2024-03-06T23:07:48;10.00;99.90
52439;DHT22;73188;52.948;6.012;2024-03-06T23:18:14;9.90;99.90
52439;DHT22;73188;52.948;6.012;2024-03-06T23:28:40;9.80;99.90
52439;DHT22;73188;52.948;6.012;2024-03-06T23:39:07;9.80;99.90
52439;DHT22;73188;52.948;6.012;2024-03-06T23:49:34;9.70;99.90
52439;DHT22;73188;52.948;6.012;2024-03-06T23:59:59;9.80;99.90
